sensor_id;sensor_type;location;lat;lon;timestamp;P1;durP1;ratioP1;P2;durP2;ratioP2
32152;SDS011;18656;50.580;11.392;2024-01-15T00:01:20;20.33;;;10.82;;
32152;SDS011;18656;50.580;11.392;2024-01-15T00:03:48;19.58;;;11.43;;
32152;SDS011;18656;50.580;11.392;2024-01-15T00:06:16;20.33;;;10.88;;
32152;SDS011;18656;50.580;11.392;2024-01-15T00:08:43;22.90;;;10.60;;
32152;SDS011;18656;50.580;11.392;2024-01-15T00:11:10;20.65;;;11.02;;
32152;SDS011;18656;50.580;11.392;2024-01-15T00:13:37;23.98;;;10.90;;
32152;SDS011;18656;50.580;11.392;2024-01-15T00:16:05;24.08;;;11.90;;
32152;SDS011;18656;50.580;11.392;2024-01-15T00:18:32;23.02;;;12.18;;
32152;SDS011;18656;50.580;11.392;2024-01-15T00:21:00;25.17;;;13.00;;
32152;SDS011;18656;50.580;11.392;2024-01-15T00:23:27;25.65;;;12.32;;
32152;SDS011;18656;50.580;11.392;2024-01-15T00:25:54;24.17;;;12.75;;
32152;SDS011;18656;50.580;11.392;2024-01-15T00:28:22;23.75;;;13.05;;
32152;SDS011;18656;50.580;11.392;2024-01-15T00:30:49;22.55;;;11.77;;
32152;SDS011;18656;50.580;11.392;2024-01-15T00:33:16;23.35;;;12.10;;
32152;SDS011;18656;50.580;11.392;2024-01-15T00:35:46;23.30;;;12.10;;
32152;SDS011;18656;50.580;11.392;2024-01-15T00:38:13;25.60;;;13.20;;
32152;SDS011;18656;50.580;11.392;2024-01-15T00:40:40;26.73;;;13.25;;
32152;SDS011;18656;50.580;11.392;2024-01-15T00:43:07;30.27;;;14.05;;
32152;SDS011;18656;50.580;11.392;2024-01-15T00:45:35;30.55;;;14.30;;
32152;SDS011;18656;50.580;11.392;2024-01-15T00:48:02;32.80;;;15.05;;
32152;SDS011;18656;50.580;11.392;2024-01-15T00:50:30;29.85;;;15.20;;
32152;SDS011;18656;50.580;11.392;2024-01-15T00:52:57;30.55;;;14.35;;
32152;SDS011;18656;50.580;11.392;2024-01-15T00:55:24;30.10;;;14.00;;
32152;SDS011;18656;50.580;11.392;2024-01-15T00:57:51;30.30;;;13.55;;
32152;SDS011;18656;50.580;11.392;2024-01-15T01:00:19;26.05;;;14.20;;
32152;SDS011;18656;50.580;11.392;2024-01-15T01:02:48;34.53;;;15.23;;
32152;SDS011;18656;50.580;11.392;2024-01-15T01:05:16;25.30;;;13.05;;
32152;SDS011;18656;50.580;11.392;2024-01-15T01:07:43;31.20;;;13.85;;
32152;SDS011;18656;50.580;11.392;2024-01-15T01:10:10;26.48;;;13.07;;
32152;SDS011;18656;50.580;11.392;2024-01-15T01:12:38;26.25;;;13.13;;
32152;SDS011;18656;50.580;11.392;2024-01-15T01:15:05;26.95;;;13.73;;
32152;SDS011;18656;50.580;11.392;2024-01-15T01:17:33;23.77;;;10.90;;
32152;SDS011;18656;50.580;11.392;2024-01-15T01:20:01;27.20;;;12.48;;
32152;SDS011;18656;50.580;11.392;2024-01-15T01:22:30;25.17;;;12.85;;
32152;SDS011;18656;50.580;11.392;2024-01-15T01:24:58;21.38;;;11.45;;
32152;SDS011;18656;50.580;11.392;2024-01-15T01:27:25;25.05;;;12.40;;
32152;SDS011;18656;50.580;11.392;2024-01-15T01:29:52;25.77;;;12.38;;
32152;SDS011;18656;50.580;11.392;2024-01-15T01:32:20;29.13;;;13.60;;
32152;SDS011;18656;50.580;11.392;2024-01-15T01:34:47;27.67;;;13.32;;
32152;SDS011;18656;50.580;11.392;2024-01-15T01:37:15;25.63;;;12.23;;
32152;SDS011;18656;50.580;11.392;2024-01-15T01:39:42;24.45;;;11.68;;
32152;SDS011;18656;50.580;11.392;2024-01-15T01:42:10;28.35;;;13.50;;
32152;SDS011;18656;50.580;11.392;2024-01-15T01:44:38;27.83;;;13.60;;
32152;SDS011;18656;50.580;11.392;2024-01-15T01:47:05;26.60;;;13.18;;
32152;SDS011;18656;50.580;11.392;2024-01-15T01:49:32;26.85;;;13.18;;
32152;SDS011;18656;50.580;11.392;2024-01-15T01:52:02;30.05;;;13.05;;
32152;SDS011;18656;50.580;11.392;2024-01-15T01:54:31;25.20;;;12.13;;
32152;SDS011;18656;50.580;11.392;2024-01-15T01:56:59;24.35;;;12.25;;
32152;SDS011;18656;50.580;11.392;2024-01-15T01:59:26;27.30;;;12.85;;
32152;SDS011;18656;50.580;11.392;2024-01-15T02:01:54;28.73;;;13.32;;
32152;SDS011;18656;50.580;11.392;2024-01-15T02:04:23;28.95;;;13.43;;
32152;SDS011;18656;50.580;11.392;2024-01-15T02:06:53;27.98;;;12.98;;
32152;SDS011;18656;50.580;11.392;2024-01-15T02:09:20;25.83;;;13.25;;
32152;SDS011;18656;50.580;11.392;2024-01-15T02:11:48;28.50;;;14.40;;
32152;SDS011;18656;50.580;11.392;2024-01-15T02:14:15;33.67;;;14.90;;
32152;SDS011;18656;50.580;11.392;2024-01-15T02:16:44;32.58;;;14.88;;
32152;SDS011;18656;50.580;11.392;2024-01-15T02:19:15;30.05;;;14.65;;
32152;SDS011;18656;50.580;11.392;2024-01-15T02:21:43;32.08;;;14.82;;
32152;SDS011;18656;50.580;11.392;2024-01-15T02:24:11;29.45;;;14.85;;
32152;SDS011;18656;50.580;11.392;2024-01-15T02:26:39;31.35;;;14.70;;
32152;SDS011;18656;50.580;11.392;2024-01-15T02:29:14;33.70;;;15.10;;
32152;SDS011;18656;50.580;11.392;2024-01-15T02:31:41;33.55;;;14.30;;
32152;SDS011;18656;50.580;11.392;2024-01-15T02:34:09;29.05;;;13.88;;
32152;SDS011;18656;50.580;11.392;2024-01-15T02:36:37;32.88;;;14.35;;
32152;SDS011;18656;50.580;11.392;2024-01-15T02:39:04;29.55;;;13.90;;
32152;SDS011;18656;50.580;11.392;2024-01-15T02:41:32;28.88;;;13.48;;
32152;SDS011;18656;50.580;11.392;2024-01-15T02:43:59;30.08;;;13.80;;
32152;SDS011;18656;50.580;11.392;2024-01-15T02:46:26;29.17;;;13.45;;
32152;SDS011;18656;50.580;11.392;2024-01-15T02:48:53;28.73;;;14.70;;
32152;SDS011;18656;50.580;11.392;2024-01-15T02:51:21;31.98;;;15.70;;
32152;SDS011;18656;50.580;11.392;2024-01-15T02:53:49;36.17;;;15.55;;
32152;SDS011;18656;50.580;11.392;2024-01-15T02:56:17;35.92;;;15.68;;
32152;SDS011;18656;50.580;11.392;2024-01-15T02:58:44;33.00;;;14.57;;
32152;SDS011;18656;50.580;11.392;2024-01-15T03:01:11;37.22;;;16.23;;
32152;SDS011;18656;50.580;11.392;2024-01-15T03:03:39;31.77;;;15.45;;
32152;SDS011;18656;50.580;11.392;2024-01-15T03:06:07;34.40;;;14.35;;
32152;SDS011;18656;50.580;11.392;2024-01-15T03:08:34;32.67;;;14.38;;
32152;SDS011;18656;50.580;11.392;2024-01-15T03:11:01;34.47;;;15.15;;
32152;SDS011;18656;50.580;11.392;2024-01-15T03:13:29;29.90;;;13.90;;
32152;SDS011;18656;50.580;11.392;2024-01-15T03:15:56;24.88;;;12.65;;
32152;SDS011;18656;50.580;11.392;2024-01-15T03:18:23;29.13;;;14.10;;
32152;SDS011;18656;50.580;11.392;2024-01-15T03:20:51;24.55;;;12.48;;
32152;SDS011;18656;50.580;11.392;2024-01-15T03:23:18;25.35;;;13.20;;
32152;SDS011;18656;50.580;11.392;2024-01-15T03:25:45;24.45;;;12.43;;
32152;SDS011;18656;50.580;11.392;2024-01-15T03:28:13;26.75;;;11.52;;
32152;SDS011;18656;50.580;11.392;2024-01-15T03:30:40;23.00;;;10.77;;
32152;SDS011;18656;50.580;11.392;2024-01-15T03:33:07;23.33;;;11.13;;
32152;SDS011;18656;50.580;11.392;2024-01-15T03:35:35;20.20;;;9.95;;
32152;SDS011;18656;50.580;11.392;2024-01-15T03:38:02;19.25;;;10.02;;
32152;SDS011;18656;50.580;11.392;2024-01-15T03:40:29;18.88;;;9.70;;
32152;SDS011;18656;50.580;11.392;2024-01-15T03:42:56;16.95;;;8.77;;
32152;SDS011;18656;50.580;11.392;2024-01-15T03:45:24;16.67;;;9.30;;
32152;SDS011;18656;50.580;11.392;2024-01-15T03:47:51;18.25;;;9.40;;
32152;SDS011;18656;50.580;11.392;2024-01-15T03:50:18;14.88;;;7.65;;
32152;SDS011;18656;50.580;11.392;2024-01-15T03:52:45;14.93;;;8.77;;
32152;SDS011;18656;50.580;11.392;2024-01-15T03:55:13;14.30;;;8.20;;
32152;SDS011;18656;50.580;11.392;2024-01-15T03:57:40;13.65;;;7.88;;
32152;SDS011;18656;50.580;11.392;2024-01-15T04:00:07;13.02;;;7.97;;
32152;SDS011;18656;50.580;11.392;2024-01-15T04:02:36;14.23;;;7.88;;
32152;SDS011;18656;50.580;11.392;2024-01-15T04:05:03;13.75;;;7.65;;
32152;SDS011;18656;50.580;11.392;2024-01-15T04:07:31;17.65;;;9.23;;
32152;SDS011;18656;50.580;11.392;2024-01-15T04:09:58;13.38;;;8.15;;
32152;SDS011;18656;50.580;11.392;2024-01-15T04:12:26;16.02;;;8.90;;
32152;SDS011;18656;50.580;11.392;2024-01-15T04:14:53;16.33;;;8.73;;
32152;SDS011;18656;50.580;11.392;2024-01-15T04:17:20;17.65;;;9.07;;
32152;SDS011;18656;50.580;11.392;2024-01-15T04:19:48;15.38;;;8.68;;
32152;SDS011;18656;50.580;11.392;2024-01-15T04:22:16;16.08;;;9.05;;
32152;SDS011;18656;50.580;11.392;2024-01-15T04:24:43;14.63;;;8.80;;
32152;SDS011;18656;50.580;11.392;2024-01-15T04:27:10;16.45;;;8.93;;
32152;SDS011;18656;50.580;11.392;2024-01-15T04:29:38;16.10;;;8.60;;
32152;SDS011;18656;50.580;11.392;2024-01-15T04:32:07;16.98;;;8.40;;
32152;SDS011;18656;50.580;11.392;2024-01-15T04:34:34;15.85;;;9.73;;
32152;SDS011;18656;50.580;11.392;2024-01-15T04:37:02;17.30;;;8.63;;
32152;SDS011;18656;50.580;11.392;2024-01-15T04:39:29;15.35;;;8.38;;
32152;SDS011;18656;50.580;11.392;2024-01-15T04:41:56;15.80;;;8.85;;
32152;SDS011;18656;50.580;11.392;2024-01-15T04:44:23;14.73;;;8.18;;
32152;SDS011;18656;50.580;11.392;2024-01-15T04:46:51;13.70;;;7.95;;
32152;SDS011;18656;50.580;11.392;2024-01-15T04:49:18;12.68;;;7.32;;
32152;SDS011;18656;50.580;11.392;2024-01-15T04:51:46;20.38;;;8.05;;
32152;SDS011;18656;50.580;11.392;2024-01-15T04:54:14;15.23;;;7.53;;
32152;SDS011;18656;50.580;11.392;2024-01-15T04:56:44;16.30;;;8.63;;
32152;SDS011;18656;50.580;11.392;2024-01-15T04:59:11;12.95;;;7.55;;
32152;SDS011;18656;50.580;11.392;2024-01-15T05:01:39;15.50;;;8.40;;
32152;SDS011;18656;50.580;11.392;2024-01-15T05:04:06;12.30;;;7.20;;
32152;SDS011;18656;50.580;11.392;2024-01-15T05:06:33;12.20;;;7.65;;
32152;SDS011;18656;50.580;11.392;2024-01-15T05:09:01;14.63;;;7.40;;
32152;SDS011;18656;50.580;11.392;2024-01-15T05:11:29;17.10;;;8.52;;
32152;SDS011;18656;50.580;11.392;2024-01-15T05:13:56;15.38;;;7.82;;
32152;SDS011;18656;50.580;11.392;2024-01-15T05:16:24;13.77;;;7.50;;
32152;SDS011;18656;50.580;11.392;2024-01-15T05:18:51;10.88;;;7.13;;
32152;SDS011;18656;50.580;11.392;2024-01-15T05:21:18;11.57;;;7.13;;
32152;SDS011;18656;50.580;11.392;2024-01-15T05:23:46;9.98;;;6.45;;
32152;SDS011;18656;50.580;11.392;2024-01-15T05:26:13;12.80;;;6.90;;
32152;SDS011;18656;50.580;11.392;2024-01-15T05:28:41;10.80;;;7.10;;
32152;SDS011;18656;50.580;11.392;2024-01-15T05:31:09;11.63;;;6.78;;
32152;SDS011;18656;50.580;11.392;2024-01-15T05:33:37;10.35;;;6.53;;
32152;SDS011;18656;50.580;11.392;2024-01-15T05:36:05;10.45;;;6.93;;
32152;SDS011;18656;50.580;11.392;2024-01-15T05:38:32;10.88;;;6.45;;
32152;SDS011;18656;50.580;11.392;2024-01-15T05:40:59;8.50;;;5.47;;
32152;SDS011;18656;50.580;11.392;2024-01-15T05:43:27;11.88;;;6.45;;
32152;SDS011;18656;50.580;11.392;2024-01-15T05:45:54;11.48;;;6.63;;
32152;SDS011;18656;50.580;11.392;2024-01-15T05:48:21;10.73;;;6.43;;
32152;SDS011;18656;50.580;11.392;2024-01-15T05:50:49;10.15;;;6.60;;
32152;SDS011;18656;50.580;11.392;2024-01-15T05:53:16;11.88;;;6.25;;
32152;SDS011;18656;50.580;11.392;2024-01-15T05:55:43;10.02;;;6.18;;
32152;SDS011;18656;50.580;11.392;2024-01-15T05:58:10;9.52;;;6.05;;
32152;SDS011;18656;50.580;11.392;2024-01-15T06:00:38;7.78;;;5.28;;
32152;SDS011;18656;50.580;11.392;2024-01-15T06:03:05;13.27;;;6.85;;
32152;SDS011;18656;50.580;11.392;2024-01-15T06:05:32;10.63;;;6.55;;
32152;SDS011;18656;50.580;11.392;2024-01-15T06:08:00;13.95;;;6.30;;
32152;SDS011;18656;50.580;11.392;2024-01-15T06:10:27;12.82;;;6.72;;
32152;SDS011;18656;50.580;11.392;2024-01-15T06:12:54;9.00;;;5.78;;
32152;SDS011;18656;50.580;11.392;2024-01-15T06:15:21;9.98;;;6.07;;
32152;SDS011;18656;50.580;11.392;2024-01-15T06:17:49;9.60;;;5.82;;
32152;SDS011;18656;50.580;11.392;2024-01-15T06:20:16;11.45;;;5.80;;
32152;SDS011;18656;50.580;11.392;2024-01-15T06:22:43;10.63;;;6.07;;
32152;SDS011;18656;50.580;11.392;2024-01-15T06:25:11;9.90;;;5.40;;
32152;SDS011;18656;50.580;11.392;2024-01-15T06:27:38;7.72;;;4.95;;
32152;SDS011;18656;50.580;11.392;2024-01-15T06:30:06;8.60;;;5.20;;
32152;SDS011;18656;50.580;11.392;2024-01-15T06:32:33;10.82;;;6.00;;
32152;SDS011;18656;50.580;11.392;2024-01-15T06:35:01;9.45;;;5.50;;
32152;SDS011;18656;50.580;11.392;2024-01-15T06:37:28;11.40;;;5.30;;
32152;SDS011;18656;50.580;11.392;2024-01-15T06:39:55;8.27;;;5.47;;
32152;SDS011;18656;50.580;11.392;2024-01-15T06:42:23;10.40;;;5.70;;
32152;SDS011;18656;50.580;11.392;2024-01-15T06:44:50;10.35;;;6.13;;
32152;SDS011;18656;50.580;11.392;2024-01-15T06:47:17;9.80;;;5.70;;
32152;SDS011;18656;50.580;11.392;2024-01-15T06:49:45;9.68;;;5.70;;
32152;SDS011;18656;50.580;11.392;2024-01-15T06:52:12;9.50;;;5.70;;
32152;SDS011;18656;50.580;11.392;2024-01-15T06:54:39;7.80;;;5.22;;
32152;SDS011;18656;50.580;11.392;2024-01-15T06:57:07;11.07;;;5.47;;
32152;SDS011;18656;50.580;11.392;2024-01-15T06:59:34;10.93;;;5.80;;
32152;SDS011;18656;50.580;11.392;2024-01-15T07:02:01;9.18;;;5.40;;
32152;SDS011;18656;50.580;11.392;2024-01-15T07:04:29;8.23;;;5.85;;
32152;SDS011;18656;50.580;11.392;2024-01-15T07:06:56;10.20;;;5.70;;
32152;SDS011;18656;50.580;11.392;2024-01-15T07:09:23;8.77;;;5.55;;
32152;SDS011;18656;50.580;11.392;2024-01-15T07:11:50;10.05;;;5.93;;
32152;SDS011;18656;50.580;11.392;2024-01-15T07:14:17;8.75;;;5.18;;
32152;SDS011;18656;50.580;11.392;2024-01-15T07:16:46;8.70;;;5.60;;
32152;SDS011;18656;50.580;11.392;2024-01-15T07:19:14;10.15;;;6.30;;
32152;SDS011;18656;50.580;11.392;2024-01-15T07:21:41;9.70;;;6.47;;
32152;SDS011;18656;50.580;11.392;2024-01-15T07:24:09;10.10;;;5.72;;
32152;SDS011;18656;50.580;11.392;2024-01-15T07:26:37;11.55;;;6.70;;
32152;SDS011;18656;50.580;11.392;2024-01-15T07:29:04;13.15;;;6.72;;
32152;SDS011;18656;50.580;11.392;2024-01-15T07:31:31;14.18;;;6.53;;
32152;SDS011;18656;50.580;11.392;2024-01-15T07:33:59;12.48;;;6.43;;
32152;SDS011;18656;50.580;11.392;2024-01-15T07:36:26;11.75;;;6.15;;
32152;SDS011;18656;50.580;11.392;2024-01-15T07:38:54;9.60;;;5.68;;
32152;SDS011;18656;50.580;11.392;2024-01-15T07:41:21;10.15;;;6.28;;
32152;SDS011;18656;50.580;11.392;2024-01-15T07:43:49;12.88;;;7.00;;
32152;SDS011;18656;50.580;11.392;2024-01-15T07:46:16;10.13;;;6.30;;
32152;SDS011;18656;50.580;11.392;2024-01-15T07:48:44;8.63;;;5.38;;
32152;SDS011;18656;50.580;11.392;2024-01-15T07:51:11;9.98;;;5.88;;
32152;SDS011;18656;50.580;11.392;2024-01-15T07:53:39;14.20;;;6.10;;
32152;SDS011;18656;50.580;11.392;2024-01-15T07:56:06;10.05;;;5.70;;
32152;SDS011;18656;50.580;11.392;2024-01-15T07:58:33;10.65;;;6.20;;
32152;SDS011;18656;50.580;11.392;2024-01-15T08:01:01;15.77;;;6.85;;
32152;SDS011;18656;50.580;11.392;2024-01-15T08:03:28;11.70;;;6.38;;
32152;SDS011;18656;50.580;11.392;2024-01-15T08:05:56;10.25;;;5.65;;
32152;SDS011;18656;50.580;11.392;2024-01-15T08:08:25;10.23;;;5.85;;
32152;SDS011;18656;50.580;11.392;2024-01-15T08:10:52;11.88;;;6.22;;
32152;SDS011;18656;50.580;11.392;2024-01-15T08:13:20;11.63;;;6.25;;
32152;SDS011;18656;50.580;11.392;2024-01-15T08:15:47;12.07;;;6.07;;
32152;SDS011;18656;50.580;11.392;2024-01-15T08:18:16;10.75;;;6.03;;
32152;SDS011;18656;50.580;11.392;2024-01-15T08:20:44;10.05;;;5.70;;
32152;SDS011;18656;50.580;11.392;2024-01-15T08:23:11;13.57;;;6.32;;
32152;SDS011;18656;50.580;11.392;2024-01-15T08:25:38;10.55;;;5.93;;
32152;SDS011;18656;50.580;11.392;2024-01-15T08:28:06;9.45;;;5.57;;
32152;SDS011;18656;50.580;11.392;2024-01-15T08:30:34;10.60;;;5.90;;
32152;SDS011;18656;50.580;11.392;2024-01-15T08:33:02;10.00;;;5.10;;
32152;SDS011;18656;50.580;11.392;2024-01-15T08:35:39;9.73;;;5.78;;
32152;SDS011;18656;50.580;11.392;2024-01-15T08:38:06;10.52;;;5.63;;
32152;SDS011;18656;50.580;11.392;2024-01-15T08:40:34;8.68;;;5.65;;
32152;SDS011;18656;50.580;11.392;2024-01-15T08:43:01;12.07;;;6.68;;
32152;SDS011;18656;50.580;11.392;2024-01-15T08:45:28;10.88;;;6.20;;
32152;SDS011;18656;50.580;11.392;2024-01-15T08:47:57;9.40;;;5.60;;
32152;SDS011;18656;50.580;11.392;2024-01-15T08:50:25;10.55;;;5.78;;
32152;SDS011;18656;50.580;11.392;2024-01-15T08:52:52;9.48;;;5.75;;
32152;SDS011;18656;50.580;11.392;2024-01-15T08:55:20;12.82;;;6.80;;
32152;SDS011;18656;50.580;11.392;2024-01-15T08:57:49;9.70;;;5.97;;
32152;SDS011;18656;50.580;11.392;2024-01-15T09:00:16;10.55;;;6.00;;
32152;SDS011;18656;50.580;11.392;2024-01-15T09:02:44;11.27;;;6.57;;
32152;SDS011;18656;50.580;11.392;2024-01-15T09:05:11;11.10;;;6.20;;
32152;SDS011;18656;50.580;11.392;2024-01-15T09:07:40;12.98;;;6.10;;
32152;SDS011;18656;50.580;11.392;2024-01-15T09:10:08;13.10;;;7.05;;
32152;SDS011;18656;50.580;11.392;2024-01-15T09:12:36;12.50;;;6.07;;
32152;SDS011;18656;50.580;11.392;2024-01-15T09:15:03;12.00;;;6.05;;
32152;SDS011;18656;50.580;11.392;2024-01-15T09:17:31;9.75;;;6.15;;
32152;SDS011;18656;50.580;11.392;2024-01-15T09:19:59;12.13;;;6.32;;
32152;SDS011;18656;50.580;11.392;2024-01-15T09:22:27;15.27;;;6.97;;
32152;SDS011;18656;50.580;11.392;2024-01-15T09:24:54;14.40;;;6.82;;
32152;SDS011;18656;50.580;11.392;2024-01-15T09:27:23;11.88;;;6.28;;
32152;SDS011;18656;50.580;11.392;2024-01-15T09:29:52;10.82;;;6.15;;
32152;SDS011;18656;50.580;11.392;2024-01-15T09:32:19;13.20;;;7.03;;
32152;SDS011;18656;50.580;11.392;2024-01-15T09:34:49;11.00;;;6.25;;
32152;SDS011;18656;50.580;11.392;2024-01-15T09:37:17;11.77;;;6.13;;
32152;SDS011;18656;50.580;11.392;2024-01-15T09:40:05;11.48;;;6.20;;
32152;SDS011;18656;50.580;11.392;2024-01-15T09:42:33;13.82;;;6.95;;
32152;SDS011;18656;50.580;11.392;2024-01-15T09:45:01;11.50;;;6.10;;
32152;SDS011;18656;50.580;11.392;2024-01-15T09:47:30;10.45;;;6.00;;
32152;SDS011;18656;50.580;11.392;2024-01-15T09:49:57;9.70;;;5.63;;
32152;SDS011;18656;50.580;11.392;2024-01-15T09:52:25;15.57;;;6.38;;
32152;SDS011;18656;50.580;11.392;2024-01-15T09:54:52;10.88;;;5.57;;
32152;SDS011;18656;50.580;11.392;2024-01-15T09:57:19;8.05;;;5.55;;
32152;SDS011;18656;50.580;11.392;2024-01-15T09:59:47;11.38;;;5.88;;
32152;SDS011;18656;50.580;11.392;2024-01-15T10:02:15;9.60;;;5.40;;
32152;SDS011;18656;50.580;11.392;2024-01-15T10:04:44;8.57;;;5.25;;
32152;SDS011;18656;50.580;11.392;2024-01-15T10:07:14;10.40;;;5.65;;
32152;SDS011;18656;50.580;11.392;2024-01-15T10:09:46;13.07;;;5.70;;
32152;SDS011;18656;50.580;11.392;2024-01-15T10:12:14;9.30;;;5.60;;
32152;SDS011;18656;50.580;11.392;2024-01-15T10:14:44;9.88;;;5.65;;
32152;SDS011;18656;50.580;11.392;2024-01-15T10:17:14;8.55;;;5.07;;
32152;SDS011;18656;50.580;11.392;2024-01-15T10:19:41;7.15;;;5.13;;
32152;SDS011;18656;50.580;11.392;2024-01-15T10:22:14;7.38;;;5.00;;
32152;SDS011;18656;50.580;11.392;2024-01-15T10:24:42;11.40;;;5.47;;
32152;SDS011;18656;50.580;11.392;2024-01-15T10:27:09;12.55;;;6.25;;
32152;SDS011;18656;50.580;11.392;2024-01-15T10:29:37;12.13;;;6.50;;
32152;SDS011;18656;50.580;11.392;2024-01-15T10:32:07;11.93;;;6.80;;
32152;SDS011;18656;50.580;11.392;2024-01-15T10:34:45;14.35;;;7.07;;
32152;SDS011;18656;50.580;11.392;2024-01-15T10:37:12;12.98;;;6.68;;
32152;SDS011;18656;50.580;11.392;2024-01-15T10:39:39;15.35;;;5.93;;
32152;SDS011;18656;50.580;11.392;2024-01-15T10:42:07;10.98;;;6.40;;
32152;SDS011;18656;50.580;11.392;2024-01-15T10:44:34;9.95;;;5.90;;
32152;SDS011;18656;50.580;11.392;2024-01-15T10:47:02;13.88;;;5.65;;
32152;SDS011;18656;50.580;11.392;2024-01-15T10:49:29;12.27;;;6.63;;
32152;SDS011;18656;50.580;11.392;2024-01-15T10:52:00;16.17;;;6.50;;
32152;SDS011;18656;50.580;11.392;2024-01-15T10:54:28;10.50;;;5.75;;
32152;SDS011;18656;50.580;11.392;2024-01-15T10:56:56;8.40;;;5.97;;
32152;SDS011;18656;50.580;11.392;2024-01-15T10:59:23;12.38;;;5.50;;
32152;SDS011;18656;50.580;11.392;2024-01-15T11:01:51;9.20;;;4.88;;
32152;SDS011;18656;50.580;11.392;2024-01-15T11:04:23;9.00;;;5.28;;
32152;SDS011;18656;50.580;11.392;2024-01-15T11:06:54;11.55;;;5.15;;
32152;SDS011;18656;50.580;11.392;2024-01-15T11:09:23;8.95;;;4.90;;
32152;SDS011;18656;50.580;11.392;2024-01-15T11:11:52;8.50;;;4.95;;
32152;SDS011;18656;50.580;11.392;2024-01-15T11:17:02;9.70;;;4.70;;
32152;SDS011;18656;50.580;11.392;2024-01-15T11:19:36;7.97;;;4.63;;
32152;SDS011;18656;50.580;11.392;2024-01-15T11:22:11;6.05;;;3.70;;
32152;SDS011;18656;50.580;11.392;2024-01-15T11:24:54;7.32;;;4.28;;
32152;SDS011;18656;50.580;11.392;2024-01-15T11:30:08;8.02;;;4.47;;
32152;SDS011;18656;50.580;11.392;2024-01-15T11:32:37;9.45;;;4.32;;
32152;SDS011;18656;50.580;11.392;2024-01-15T11:35:09;10.93;;;4.43;;
32152;SDS011;18656;50.580;11.392;2024-01-15T11:40:21;8.05;;;4.40;;
32152;SDS011;18656;50.580;11.392;2024-01-15T11:42:49;6.15;;;4.40;;
32152;SDS011;18656;50.580;11.392;2024-01-15T11:45:19;8.50;;;4.85;;
32152;SDS011;18656;50.580;11.392;2024-01-15T11:50:33;5.90;;;4.30;;
32152;SDS011;18656;50.580;11.392;2024-01-15T11:53:03;24.73;;;5.22;;
32152;SDS011;18656;50.580;11.392;2024-01-15T11:55:34;7.38;;;4.82;;
32152;SDS011;18656;50.580;11.392;2024-01-15T11:58:02;7.35;;;4.30;;
32152;SDS011;18656;50.580;11.392;2024-01-15T12:00:35;5.35;;;4.35;;
32152;SDS011;18656;50.580;11.392;2024-01-15T12:03:07;8.88;;;5.20;;
32152;SDS011;18656;50.580;11.392;2024-01-15T12:05:36;9.43;;;4.38;;
32152;SDS011;18656;50.580;11.392;2024-01-15T12:08:04;9.10;;;4.75;;
32152;SDS011;18656;50.580;11.392;2024-01-15T12:10:38;7.15;;;4.63;;
32152;SDS011;18656;50.580;11.392;2024-01-15T12:13:14;7.47;;;4.75;;
32152;SDS011;18656;50.580;11.392;2024-01-15T12:15:42;7.40;;;5.22;;
32152;SDS011;18656;50.580;11.392;2024-01-15T12:18:11;10.93;;;4.40;;
32152;SDS011;18656;50.580;11.392;2024-01-15T12:20:39;8.18;;;5.15;;
32152;SDS011;18656;50.580;11.392;2024-01-15T12:23:06;9.10;;;4.38;;
32152;SDS011;18656;50.580;11.392;2024-01-15T12:25:36;7.60;;;4.47;;
32152;SDS011;18656;50.580;11.392;2024-01-15T12:28:04;9.23;;;5.40;;
32152;SDS011;18656;50.580;11.392;2024-01-15T12:30:32;12.27;;;5.35;;
32152;SDS011;18656;50.580;11.392;2024-01-15T12:33:01;9.18;;;5.03;;
32152;SDS011;18656;50.580;11.392;2024-01-15T12:35:30;8.48;;;4.75;;
32152;SDS011;18656;50.580;11.392;2024-01-15T12:37:59;9.65;;;4.97;;
32152;SDS011;18656;50.580;11.392;2024-01-15T12:40:26;9.43;;;4.90;;
32152;SDS011;18656;50.580;11.392;2024-01-15T12:42:54;7.45;;;4.93;;
32152;SDS011;18656;50.580;11.392;2024-01-15T12:45:21;8.13;;;5.25;;
32152;SDS011;18656;50.580;11.392;2024-01-15T12:47:50;9.15;;;4.97;;
32152;SDS011;18656;50.580;11.392;2024-01-15T12:50:18;7.28;;;5.07;;
32152;SDS011;18656;50.580;11.392;2024-01-15T12:52:47;10.13;;;5.47;;
32152;SDS011;18656;50.580;11.392;2024-01-15T12:55:14;9.98;;;5.38;;
32152;SDS011;18656;50.580;11.392;2024-01-15T12:57:42;9.25;;;5.07;;
32152;SDS011;18656;50.580;11.392;2024-01-15T13:00:11;7.93;;;4.88;;
32152;SDS011;18656;50.580;11.392;2024-01-15T13:02:41;8.05;;;5.45;;
32152;SDS011;18656;50.580;11.392;2024-01-15T13:05:10;12.07;;;5.90;;
32152;SDS011;18656;50.580;11.392;2024-01-15T13:07:40;8.65;;;5.15;;
32152;SDS011;18656;50.580;11.392;2024-01-15T13:10:09;7.55;;;4.78;;
32152;SDS011;18656;50.580;11.392;2024-01-15T13:12:37;8.25;;;4.20;;
32152;SDS011;18656;50.580;11.392;2024-01-15T13:15:05;6.00;;;3.88;;
32152;SDS011;18656;50.580;11.392;2024-01-15T13:17:39;4.38;;;3.47;;
32152;SDS011;18656;50.580;11.392;2024-01-15T13:20:06;8.15;;;4.28;;
32152;SDS011;18656;50.580;11.392;2024-01-15T13:22:35;4.35;;;3.83;;
32152;SDS011;18656;50.580;11.392;2024-01-15T13:25:02;5.80;;;3.92;;
32152;SDS011;18656;50.580;11.392;2024-01-15T13:27:31;6.18;;;4.03;;
32152;SDS011;18656;50.580;11.392;2024-01-15T13:29:58;5.82;;;3.78;;
32152;SDS011;18656;50.580;11.392;2024-01-15T13:32:27;5.40;;;3.97;;
32152;SDS011;18656;50.580;11.392;2024-01-15T13:34:55;5.22;;;3.78;;
32152;SDS011;18656;50.580;11.392;2024-01-15T13:37:23;7.45;;;4.20;;
32152;SDS011;18656;50.580;11.392;2024-01-15T13:39:51;5.15;;;4.00;;
32152;SDS011;18656;50.580;11.392;2024-01-15T13:42:19;6.47;;;4.35;;
32152;SDS011;18656;50.580;11.392;2024-01-15T13:44:49;6.15;;;3.80;;
32152;SDS011;18656;50.580;11.392;2024-01-15T13:47:17;5.53;;;3.78;;
32152;SDS011;18656;50.580;11.392;2024-01-15T13:49:45;6.45;;;4.18;;
32152;SDS011;18656;50.580;11.392;2024-01-15T13:52:12;6.07;;;4.10;;
32152;SDS011;18656;50.580;11.392;2024-01-15T13:54:39;13.55;;;4.97;;
32152;SDS011;18656;50.580;11.392;2024-01-15T13:57:16;10.30;;;4.15;;
32152;SDS011;18656;50.580;11.392;2024-01-15T13:59:44;7.38;;;4.22;;
32152;SDS011;18656;50.580;11.392;2024-01-15T14:02:11;6.25;;;4.15;;
32152;SDS011;18656;50.580;11.392;2024-01-15T14:04:42;7.10;;;4.38;;
32152;SDS011;18656;50.580;11.392;2024-01-15T14:07:10;6.68;;;4.47;;
32152;SDS011;18656;50.580;11.392;2024-01-15T14:09:37;7.55;;;4.30;;
32152;SDS011;18656;50.580;11.392;2024-01-15T14:12:04;8.20;;;4.50;;
32152;SDS011;18656;50.580;11.392;2024-01-15T14:14:32;7.40;;;4.43;;
32152;SDS011;18656;50.580;11.392;2024-01-15T14:17:00;8.88;;;4.57;;
32152;SDS011;18656;50.580;11.392;2024-01-15T14:19:27;7.75;;;3.97;;
32152;SDS011;18656;50.580;11.392;2024-01-15T14:21:54;5.00;;;3.90;;
32152;SDS011;18656;50.580;11.392;2024-01-15T14:24:22;8.63;;;5.05;;
32152;SDS011;18656;50.580;11.392;2024-01-15T14:26:49;7.45;;;4.55;;
32152;SDS011;18656;50.580;11.392;2024-01-15T14:29:16;8.18;;;4.43;;
32152;SDS011;18656;50.580;11.392;2024-01-15T14:31:46;10.73;;;4.28;;
32152;SDS011;18656;50.580;11.392;2024-01-15T14:34:15;7.05;;;4.30;;
32152;SDS011;18656;50.580;11.392;2024-01-15T14:36:44;6.13;;;4.30;;
32152;SDS011;18656;50.580;11.392;2024-01-15T14:39:13;5.78;;;3.90;;